createdAt,value
2023-05-12T00:01:07.992Z,99463.63
2023-05-12T00:03:34.694Z,99463.28
2023-05-12T00:06:03.679Z,99456.25
2023-05-12T00:08:31.428Z,99453.31
2023-05-12T00:10:58.015Z,99454.63
2023-05-12T00:13:24.712Z,99458.19
2023-05-12T00:15:51.933Z,99445.75
2023-05-12T00:18:18.514Z,99452.56
2023-05-12T00:20:45.069Z,99458.16
2023-05-12T00:23:12.268Z,99449.72
2023-05-12T00:25:38.873Z,99446.69
2023-05-12T00:28:05.869Z,99451.13
2023-05-12T00:30:32.399Z,99450.41
2023-05-12T00:32:59.005Z,99445.09
2023-05-12T00:35:25.708Z,99448.16
2023-05-12T00:37:52.742Z,99435.44
2023-05-12T00:40:19.720Z,99433.72
2023-05-12T00:42:46.430Z,99429.31
2023-05-12T00:45:13.119Z,99412.22
2023-05-12T00:47:40.067Z,99422.44
2023-05-12T00:50:08.426Z,99421.38
2023-05-12T00:52:35.399Z,99416.75
2023-05-12T00:55:03.615Z,99414.31
2023-05-12T00:57:30.252Z,99400.81
2023-05-12T00:59:56.845Z,99402.25
2023-05-12T01:02:24.070Z,99397.81
2023-05-12T01:04:51.600Z,99403.56
2023-05-12T01:07:22.745Z,99392.00
2023-05-12T01:09:54.402Z,99396.00
2023-05-12T01:12:21.491Z,99392.69
2023-05-12T01:14:48.403Z,99390.50
2023-05-12T01:17:19.608Z,99386.78
2023-05-12T01:19:50.498Z,99387.50
2023-05-12T01:22:17.970Z,99386.75
2023-05-12T01:24:54.400Z,99378.34
2023-05-12T01:27:22.173Z,99390.78
2023-05-12T01:29:49.915Z,99400.31
2023-05-12T01:32:16.894Z,99393.41
2023-05-12T01:34:43.707Z,99393.25
2023-05-12T01:37:10.845Z,99387.81
2023-05-12T01:39:37.958Z,99388.50
2023-05-12T01:42:05.752Z,99381.75
2023-05-12T01:44:32.442Z,99377.38
2023-05-12T01:46:59.263Z,99380.50
2023-05-12T01:49:25.797Z,99367.16
2023-05-12T01:51:52.504Z,99364.66
2023-05-12T01:54:19.367Z,99367.19
2023-05-12T01:56:45.944Z,99359.84
2023-05-12T01:59:12.519Z,99360.31
2023-05-12T02:01:39.127Z,99348.72
2023-05-12T02:04:08.037Z,99355.19
2023-05-12T02:06:34.779Z,99355.09
2023-05-12T02:09:01.426Z,99360.84
2023-05-12T02:11:28.151Z,99351.41
2023-05-12T02:13:54.682Z,99343.50
2023-05-12T02:16:21.341Z,99334.25
2023-05-12T02:18:48.179Z,99356.28
2023-05-12T02:21:14.766Z,99348.50
2023-05-12T02:23:41.393Z,99344.34
2023-05-12T02:26:07.957Z,99347.81
2023-05-12T02:28:34.524Z,99346.88
2023-05-12T02:31:01.029Z,99358.72
2023-05-12T02:33:27.595Z,99357.28
2023-05-12T02:35:54.104Z,99355.47
2023-05-12T02:38:20.686Z,99366.78
2023-05-12T02:40:47.897Z,99359.34
2023-05-12T02:43:14.415Z,99372.59
2023-05-12T02:45:41.507Z,99372.94
2023-05-12T02:48:08.302Z,99372.84
2023-05-12T02:50:34.925Z,99379.00
2023-05-12T02:53:02.268Z,99374.19
2023-05-12T02:55:30.683Z,99380.91
2023-05-12T02:57:57.550Z,99375.50
2023-05-12T03:00:24.120Z,99373.47
2023-05-12T03:02:51.069Z,99372.56
2023-05-12T03:05:17.881Z,99371.75
2023-05-12T03:07:44.565Z,99372.56
2023-05-12T03:10:11.236Z,99367.41
2023-05-12T03:12:37.838Z,99365.56
2023-05-12T03:15:04.832Z,99366.88
2023-05-12T03:17:32.025Z,99359.00
2023-05-12T03:19:58.678Z,99350.81
2023-05-12T03:22:25.265Z,99363.16
2023-05-12T03:24:51.997Z,99353.34
2023-05-12T03:27:18.831Z,99357.84
2023-05-12T03:29:45.947Z,99352.66
2023-05-12T03:32:12.990Z,99350.84
2023-05-12T03:34:39.697Z,99345.06
2023-05-12T03:37:06.242Z,99342.84
2023-05-12T03:39:33.522Z,99334.13
2023-05-12T03:42:00.198Z,99324.06
2023-05-12T03:44:26.722Z,99325.75
2023-05-12T03:46:53.337Z,99325.41
2023-05-12T03:49:20.034Z,99322.38
2023-05-12T03:51:46.606Z,99319.75
2023-05-12T03:54:13.130Z,99315.56
2023-05-12T03:56:39.678Z,99315.53
2023-05-12T03:59:06.447Z,99311.56
2023-05-12T04:01:33.089Z,99305.59
2023-05-12T04:03:59.638Z,99307.00
2023-05-12T04:06:26.147Z,99308.94
2023-05-12T04:08:52.704Z,99308.84
2023-05-12T04:11:19.236Z,99314.03
2023-05-12T04:13:45.852Z,99306.31
2023-05-12T04:16:12.469Z,99306.16
2023-05-12T04:18:39.021Z,99300.41
2023-05-12T04:21:06.192Z,99298.69
2023-05-12T04:23:32.825Z,99299.91
2023-05-12T04:25:59.341Z,99304.03
2023-05-12T04:28:25.955Z,99297.34
2023-05-12T04:30:52.478Z,99296.50
2023-05-12T04:33:19.123Z,99298.56
2023-05-12T04:35:45.645Z,99299.03
2023-05-12T04:38:12.319Z,99300.56
2023-05-12T04:40:38.901Z,99301.44
2023-05-12T04:43:05.423Z,99305.06
2023-05-12T04:45:32.320Z,99295.53
2023-05-12T04:47:58.885Z,99298.72
2023-05-12T04:50:25.416Z,99297.81
2023-05-12T04:52:52.317Z,99286.50
2023-05-12T04:55:19.103Z,99301.19
2023-05-12T04:57:45.750Z,99294.72
2023-05-12T05:00:12.824Z,99300.22
2023-05-12T05:02:40.401Z,99292.63
2023-05-12T05:05:07.513Z,99300.56
2023-05-12T05:07:34.031Z,99300.47
2023-05-12T05:10:01.166Z,99288.53
2023-05-12T05:12:27.739Z,99291.84
2023-05-12T05:14:54.298Z,99289.34
2023-05-12T05:17:20.960Z,99294.44
2023-05-12T05:19:57.271Z,99290.72
2023-05-12T05:22:24.798Z,99287.44
2023-05-12T05:24:52.048Z,99295.78
2023-05-12T05:27:18.913Z,99296.59
2023-05-12T05:29:45.787Z,99293.31
2023-05-12T05:32:12.551Z,99292.50
2023-05-12T05:34:39.254Z,99291.44
2023-05-12T05:37:06.043Z,99288.97
2023-05-12T05:39:32.551Z,99293.28
2023-05-12T05:41:59.311Z,99289.78
2023-05-12T05:44:25.828Z,99292.66
2023-05-12T05:46:52.381Z,99284.13
2023-05-12T05:49:19.166Z,99281.50
2023-05-12T05:51:45.910Z,99283.03
2023-05-12T05:54:12.890Z,99282.31
2023-05-12T05:56:39.503Z,99278.47
2023-05-12T05:59:06.390Z,99280.56
2023-05-12T06:01:33.092Z,99278.41
2023-05-12T06:04:00.015Z,99280.94
2023-05-12T06:06:26.938Z,99283.53
2023-05-12T06:08:56.003Z,99283.50
2023-05-12T06:11:22.807Z,99276.69
2023-05-12T06:13:49.843Z,99275.94
2023-05-12T06:16:16.425Z,99277.72
2023-05-12T06:18:43.447Z,99267.56
2023-05-12T06:21:10.172Z,99268.56
2023-05-12T06:23:36.689Z,99264.47
2023-05-12T06:26:03.420Z,99267.06
2023-05-12T06:28:30.192Z,99258.25
2023-05-12T06:30:56.792Z,99252.97
2023-05-12T06:33:23.379Z,99252.00
2023-05-12T06:35:50.038Z,99249.63
2023-05-12T06:38:16.561Z,99251.91
2023-05-12T06:40:43.170Z,99253.00
2023-05-12T06:43:09.887Z,99249.88
2023-05-12T06:45:36.848Z,99244.53
2023-05-12T06:48:06.033Z,99242.69
2023-05-12T06:50:32.750Z,99246.22
2023-05-12T06:52:59.279Z,99250.38
2023-05-12T06:55:25.977Z,99260.66
2023-05-12T06:57:55.778Z,99255.53
2023-05-12T07:00:26.546Z,99254.78
2023-05-12T07:02:53.317Z,99265.47
2023-05-12T07:05:21.215Z,99263.47
2023-05-12T07:07:48.068Z,99272.63
2023-05-12T07:10:15.003Z,99269.69
2023-05-12T07:12:41.592Z,99266.63
2023-05-12T07:15:08.606Z,99279.31
2023-05-12T07:17:35.311Z,99290.31
2023-05-12T07:20:02.418Z,99295.00
2023-05-12T07:22:29.659Z,99300.16
2023-05-12T07:24:56.212Z,99300.97
2023-05-12T07:27:22.764Z,99303.69
2023-05-12T07:29:49.255Z,99304.53
2023-05-12T07:32:16.060Z,99307.91
2023-05-12T07:34:42.619Z,99313.97
2023-05-12T07:37:09.177Z,99317.47
2023-05-12T07:39:35.749Z,99321.88
2023-05-12T07:42:02.350Z,99319.91
2023-05-12T07:44:28.944Z,99323.69
2023-05-12T07:46:55.510Z,99323.59
2023-05-12T07:49:23.405Z,99322.25
2023-05-12T07:51:50.342Z,99327.47
2023-05-12T07:54:17.123Z,99327.34
2023-05-12T07:56:43.776Z,99328.63
2023-05-12T07:59:10.933Z,99334.81
2023-05-12T08:01:37.535Z,99337.56
2023-05-12T08:04:04.379Z,99362.53
2023-05-12T08:06:31.189Z,99395.78
2023-05-12T08:08:58.462Z,99404.13
2023-05-12T08:11:26.153Z,99396.16
2023-05-12T08:13:53.082Z,99400.81
2023-05-12T08:16:19.776Z,99414.16
2023-05-12T08:18:46.414Z,99419.56
2023-05-12T08:21:12.997Z,99438.19
2023-05-12T08:23:39.578Z,99441.75
2023-05-12T08:26:06.268Z,99448.53
2023-05-12T08:28:32.960Z,99466.22
2023-05-12T08:31:00.920Z,99511.47
2023-05-12T08:33:28.762Z,99538.00
2023-05-12T08:35:55.387Z,99538.41
2023-05-12T08:38:22.355Z,99552.84
2023-05-12T08:41:17.867Z,99547.53
2023-05-12T08:43:46.442Z,99574.88
2023-05-12T08:46:13.504Z,99597.56
2023-05-12T08:48:42.000Z,99634.09
2023-05-12T08:51:13.841Z,99671.88
2023-05-12T08:53:41.987Z,99676.22
2023-05-12T08:58:42.820Z,99705.00
2023-05-12T09:01:11.876Z,99731.91
2023-05-12T09:03:39.096Z,99738.94
2023-05-12T09:06:06.740Z,99754.81
2023-05-12T09:08:35.085Z,99762.75
2023-05-12T09:11:02.773Z,99751.78
2023-05-12T09:14:04.303Z,99774.47
2023-05-12T09:16:35.804Z,99776.31
2023-05-12T09:19:04.589Z,99780.13
2023-05-12T09:21:34.165Z,99800.50
2023-05-12T09:24:09.173Z,99801.28
2023-05-12T09:26:50.037Z,99806.81
2023-05-12T09:29:27.777Z,99809.69
2023-05-12T09:31:59.601Z,99816.00
2023-05-12T09:34:31.028Z,99820.75
2023-05-12T09:37:03.604Z,99828.38
2023-05-12T09:39:30.160Z,99826.81
2023-05-12T09:41:56.977Z,99830.06
2023-05-12T09:44:24.940Z,99835.25
2023-05-12T09:46:52.802Z,99833.75
2023-05-12T09:49:20.452Z,99842.66
2023-05-12T09:51:47.481Z,99849.94
2023-05-12T09:54:24.655Z,99846.13
2023-05-12T09:56:52.832Z,99851.47
2023-05-12T09:59:21.298Z,99862.41
2023-05-12T10:01:48.602Z,99856.59
2023-05-12T10:04:15.631Z,99828.78
2023-05-12T10:06:43.166Z,99777.19
2023-05-12T10:09:20.656Z,99650.03
2023-05-12T10:11:47.626Z,99583.06
2023-05-12T10:14:14.467Z,99560.75
2023-05-12T10:16:41.597Z,99552.00
2023-05-12T10:19:10.510Z,99565.13
2023-05-12T10:21:38.573Z,99563.38
2023-05-12T10:24:05.515Z,99564.25
2023-05-12T10:26:37.596Z,99573.97
2023-05-12T10:29:04.222Z,99588.88
2023-05-12T10:31:31.184Z,99600.13
2023-05-12T10:34:02.691Z,99618.13
2023-05-12T10:36:29.757Z,99640.13
2023-05-12T10:39:04.319Z,99651.03
2023-05-12T10:41:35.466Z,99694.03
2023-05-12T10:44:02.108Z,99712.72
2023-05-12T10:46:28.839Z,99719.03
2023-05-12T10:49:00.694Z,99745.59
2023-05-12T10:51:33.230Z,99756.78
2023-05-12T10:54:05.305Z,99749.75
2023-05-12T10:56:44.287Z,99745.63
2023-05-12T10:59:23.036Z,99751.78
2023-05-12T11:02:13.655Z,99747.78
2023-05-12T11:04:58.280Z,99769.50
2023-05-12T11:07:27.776Z,99765.44
2023-05-12T11:09:58.906Z,99764.75
2023-05-12T11:12:32.582Z,99760.22
2023-05-12T11:15:01.420Z,99770.94
2023-05-12T11:17:28.181Z,99796.34
2023-05-12T11:19:55.908Z,99792.50
2023-05-12T11:22:24.174Z,99798.56
2023-05-12T11:24:52.837Z,99802.41
2023-05-12T11:27:21.318Z,99798.03
2023-05-12T11:30:01.812Z,99816.19
2023-05-12T11:32:30.425Z,99815.97
2023-05-12T11:35:18.545Z,99804.81
2023-05-12T11:37:46.145Z,99819.53
2023-05-12T11:40:22.547Z,99823.97
2023-05-12T11:42:52.236Z,99818.53
2023-05-12T11:45:27.299Z,99819.63
2023-05-12T11:48:05.003Z,99814.50
2023-05-12T11:50:31.752Z,99813.81
2023-05-12T11:52:58.340Z,99808.59
2023-05-12T11:55:25.451Z,99806.56
2023-05-12T11:57:58.629Z,99808.97
2023-05-12T12:00:30.271Z,99800.63
2023-05-12T12:03:26.516Z,99789.41
2023-05-12T12:06:03.692Z,99786.47
2023-05-12T12:08:30.993Z,99782.22
2023-05-12T12:10:57.849Z,99793.38
2023-05-12T12:13:26.449Z,99785.34
2023-05-12T12:15:53.173Z,99792.31
2023-05-12T12:18:19.767Z,99795.72
2023-05-12T12:20:49.218Z,99787.47
2023-05-12T12:23:15.749Z,99778.19
2023-05-12T12:25:43.547Z,99779.13
2023-05-12T12:28:10.188Z,99783.22
2023-05-12T12:30:36.845Z,99784.06
2023-05-12T12:33:03.495Z,99775.84
2023-05-12T12:35:30.067Z,99784.09
2023-05-12T12:37:56.894Z,99773.00
2023-05-12T12:40:23.467Z,99763.88
2023-05-12T12:42:50.041Z,99770.03
2023-05-12T12:45:19.359Z,99764.38
2023-05-12T12:47:46.889Z,99762.66
2023-05-12T12:50:13.745Z,99756.81
2023-05-12T12:52:40.285Z,99756.00
2023-05-12T12:55:07.557Z,99757.69
2023-05-12T12:57:34.885Z,99758.63
2023-05-12T13:00:01.417Z,99756.97
2023-05-12T13:02:28.245Z,99756.31
2023-05-12T13:04:54.949Z,99753.75
2023-05-12T13:07:21.967Z,99745.09
2023-05-12T13:09:48.518Z,99748.81
2023-05-12T13:12:15.098Z,99747.91
2023-05-12T13:14:41.687Z,99742.69
2023-05-12T13:17:08.340Z,99754.53
2023-05-12T13:19:37.745Z,99762.06
2023-05-12T13:22:04.985Z,99752.53
2023-05-12T13:24:31.634Z,99758.41
2023-05-12T13:26:58.293Z,99762.03
2023-05-12T13:29:24.890Z,99760.66
2023-05-12T13:31:51.422Z,99752.16
2023-05-12T13:34:17.984Z,99751.22
2023-05-12T13:36:44.597Z,99751.47
2023-05-12T13:39:11.440Z,99754.94
2023-05-12T13:41:38.058Z,99744.53
2023-05-12T13:44:04.754Z,99743.63
2023-05-12T13:46:31.352Z,99745.63
2023-05-12T13:48:58.176Z,99748.13
2023-05-12T13:51:25.878Z,99738.53
2023-05-12T13:53:52.780Z,99735.97
2023-05-12T13:56:19.966Z,99732.56
2023-05-12T13:58:46.896Z,99727.53
2023-05-12T14:01:13.533Z,99732.78
2023-05-12T14:03:40.468Z,99730.94
2023-05-12T14:06:07.064Z,99729.91
2023-05-12T14:08:33.568Z,99739.41
2023-05-12T14:11:00.172Z,99736.50
2023-05-12T14:13:27.629Z,99742.22
2023-05-12T14:15:54.423Z,99737.03
2023-05-12T14:18:21.236Z,99733.59
2023-05-12T14:20:48.021Z,99728.38
2023-05-12T14:23:14.640Z,99731.84
2023-05-12T14:25:41.207Z,99737.03
2023-05-12T14:28:08.124Z,99729.34
2023-05-12T14:30:35.330Z,99730.25
2023-05-12T14:33:02.610Z,99730.22
2023-05-12T14:35:29.598Z,99743.50
2023-05-12T14:37:57.007Z,99764.81
2023-05-12T14:40:23.915Z,99773.31
2023-05-12T14:42:50.577Z,99779.00
2023-05-12T14:45:17.303Z,99784.06
2023-05-12T14:47:43.975Z,99800.16
2023-05-12T14:50:11.095Z,99798.41
2023-05-12T14:52:40.198Z,99788.97
2023-05-12T14:55:13.899Z,99738.38
2023-05-12T14:57:44.309Z,99673.00
2023-05-12T15:00:12.807Z,99700.19
2023-05-12T15:02:40.504Z,99638.56
2023-05-12T15:05:08.724Z,99681.41
2023-05-12T15:07:35.825Z,99741.16
2023-05-12T15:10:03.005Z,99747.94
2023-05-12T15:12:29.784Z,99758.16
2023-05-12T15:14:56.681Z,99766.91
2023-05-12T15:17:23.475Z,99770.41
2023-05-12T15:19:50.304Z,99772.31
2023-05-12T15:22:16.800Z,99773.22
2023-05-12T15:24:43.368Z,99748.47
2023-05-12T15:27:09.921Z,99734.63
2023-05-12T15:29:40.736Z,99705.53
2023-05-12T15:32:07.841Z,99694.38
2023-05-12T15:34:35.534Z,99677.22
2023-05-12T15:37:02.063Z,99661.09
2023-05-12T15:39:28.605Z,99681.78
2023-05-12T15:41:55.183Z,99726.81
2023-05-12T15:44:21.784Z,99703.44
2023-05-12T15:46:48.449Z,99722.31
2023-05-12T15:49:15.010Z,99719.22
2023-05-12T15:51:41.692Z,99759.91
2023-05-12T15:54:09.520Z,99760.53
2023-05-12T15:56:36.627Z,99754.41
2023-05-12T15:59:05.171Z,99744.84
2023-05-12T16:01:32.090Z,99753.63
2023-05-12T16:03:59.262Z,99763.91
2023-05-12T16:06:26.116Z,99770.06
2023-05-12T16:08:53.294Z,99767.00
2023-05-12T16:11:20.054Z,99764.41
2023-05-12T16:13:46.788Z,99777.00
2023-05-12T16:16:13.384Z,99786.34
2023-05-12T16:18:40.276Z,99785.75
2023-05-12T16:21:07.198Z,99786.53
2023-05-12T16:23:33.736Z,99792.50
2023-05-12T16:26:00.404Z,99796.22
2023-05-12T16:28:27.439Z,99789.56
2023-05-12T16:30:53.938Z,99776.31
2023-05-12T16:33:20.508Z,99773.31
2023-05-12T16:35:47.098Z,99760.91
2023-05-12T16:38:13.737Z,99774.97
2023-05-12T16:40:40.299Z,99781.78
2023-05-12T16:43:06.844Z,99791.53
2023-05-12T16:45:33.572Z,99785.38
2023-05-12T16:48:00.416Z,99782.09
2023-05-12T16:50:26.973Z,99774.31
2023-05-12T16:52:53.745Z,99784.25
2023-05-12T16:55:20.861Z,99790.94
2023-05-12T16:57:47.617Z,99799.31
2023-05-12T17:00:14.890Z,99806.94
2023-05-12T17:02:41.667Z,99800.16
2023-05-12T17:05:08.451Z,99796.78
2023-05-12T17:07:37.939Z,99806.16
2023-05-12T17:10:04.969Z,99797.19
2023-05-12T17:12:32.194Z,99803.53
2023-05-12T17:15:07.060Z,99801.34
2023-05-12T17:17:35.258Z,99802.03
2023-05-12T17:20:02.597Z,99809.31
2023-05-12T17:22:29.690Z,99788.50
2023-05-12T17:24:56.738Z,99783.91
2023-05-12T17:27:23.469Z,99783.13
2023-05-12T17:29:50.055Z,99778.53
2023-05-12T17:32:17.087Z,99774.00
2023-05-12T17:34:43.623Z,99778.28
2023-05-12T17:37:10.189Z,99766.31
2023-05-12T17:39:40.416Z,99768.56
2023-05-12T17:42:07.349Z,99780.84
2023-05-12T17:44:33.886Z,99788.28
2023-05-12T17:47:00.727Z,99790.38
2023-05-12T17:49:27.349Z,99803.31
2023-05-12T17:51:54.969Z,99812.75
2023-05-12T17:54:21.714Z,99815.56
2023-05-12T17:56:48.808Z,99813.38
2023-05-12T17:59:15.408Z,99811.66
2023-05-12T18:01:42.004Z,99816.81
2023-05-12T18:04:08.591Z,99816.66
2023-05-12T18:06:35.557Z,99813.34
2023-05-12T18:09:03.348Z,99808.81
2023-05-12T18:11:29.938Z,99816.28
2023-05-12T18:13:56.642Z,99828.00
2023-05-12T18:16:29.151Z,99822.28
2023-05-12T18:18:56.319Z,99825.34
2023-05-12T18:21:22.909Z,99829.81
2023-05-12T18:23:49.472Z,99821.34
2023-05-12T18:26:16.040Z,99826.94
2023-05-12T18:28:42.620Z,99811.97
2023-05-12T18:31:15.967Z,99822.78
2023-05-12T18:33:46.892Z,99818.72
2023-05-12T18:36:13.544Z,99824.75
2023-05-12T18:38:40.155Z,99816.41
2023-05-12T18:41:07.464Z,99817.81
2023-05-12T18:43:37.062Z,99817.56
2023-05-12T18:46:04.478Z,99825.97
2023-05-12T18:48:31.220Z,99832.72
2023-05-12T18:50:58.147Z,99847.34
2023-05-12T18:53:24.813Z,99853.84
2023-05-12T18:55:51.654Z,99868.97
2023-05-12T18:58:18.249Z,99908.00
2023-05-12T19:00:45.379Z,99943.25
2023-05-12T19:03:11.964Z,99975.03
2023-05-12T19:05:43.216Z,99988.19
2023-05-12T19:08:10.843Z,99987.72
2023-05-12T19:10:39.983Z,99892.34
2023-05-12T19:13:07.133Z,99737.69
2023-05-12T19:15:33.800Z,99514.25
2023-05-12T19:18:00.477Z,99465.78
2023-05-12T19:20:28.182Z,99457.91
2023-05-12T19:22:54.973Z,99423.50
2023-05-12T19:25:22.003Z,99396.00
2023-05-12T19:27:48.820Z,99385.78
2023-05-12T19:30:15.534Z,99371.06
2023-05-12T19:32:42.739Z,99365.28
2023-05-12T19:35:11.055Z,99345.25
2023-05-12T19:37:38.434Z,99348.84
2023-05-12T19:40:05.606Z,99350.97
2023-05-12T19:42:32.710Z,99350.25
2023-05-12T19:45:00.560Z,99360.06
2023-05-12T19:47:27.252Z,99363.31
2023-05-12T19:49:54.348Z,99364.03
2023-05-12T19:52:22.027Z,99363.94
2023-05-12T19:54:48.602Z,99358.22
2023-05-12T19:57:15.150Z,99356.56
2023-05-12T19:59:41.669Z,99347.22
2023-05-12T20:02:12.874Z,99354.94
2023-05-12T20:04:40.151Z,99354.09
2023-05-12T20:07:06.694Z,99354.03
2023-05-12T20:09:33.233Z,99355.88
2023-05-12T20:11:59.768Z,99360.84
2023-05-12T20:14:26.439Z,99363.25
2023-05-12T20:16:53.113Z,99367.47
2023-05-12T20:19:19.640Z,99366.78
2023-05-12T20:21:46.379Z,99370.03
2023-05-12T20:24:12.960Z,99370.75
2023-05-12T20:26:39.504Z,99372.53
2023-05-12T20:29:06.106Z,99380.25
2023-05-12T20:31:32.751Z,99381.19
2023-05-12T20:33:59.303Z,99386.00
2023-05-12T20:36:25.958Z,99397.91
2023-05-12T20:38:52.543Z,99397.09
2023-05-12T20:41:19.487Z,99393.44
2023-05-12T20:43:46.069Z,99399.00
2023-05-12T20:46:13.506Z,99391.28
2023-05-12T20:48:40.072Z,99392.41
2023-05-12T20:51:11.538Z,99399.63
2023-05-12T20:53:38.200Z,99400.44
2023-05-12T20:56:04.893Z,99402.31
2023-05-12T20:58:31.444Z,99398.78
2023-05-12T21:00:59.076Z,99396.38
2023-05-12T21:03:26.683Z,99396.19
2023-05-12T21:05:53.228Z,99397.84
2023-05-12T21:08:19.774Z,99394.16
2023-05-12T21:10:47.036Z,99383.00
2023-05-12T21:13:14.728Z,99384.78
2023-05-12T21:15:41.306Z,99390.53
2023-05-12T21:18:09.017Z,99388.22
2023-05-12T21:20:35.702Z,99388.91
2023-05-12T21:23:02.414Z,99398.34
2023-05-12T21:25:29.077Z,99400.16
2023-05-12T21:27:55.887Z,99395.13
2023-05-12T21:30:22.837Z,99394.13
2023-05-12T21:32:49.719Z,99389.06
2023-05-12T21:35:16.825Z,99386.50
2023-05-12T21:37:43.477Z,99383.97
2023-05-12T21:40:10.308Z,99384.84
2023-05-12T21:42:36.997Z,99381.25
2023-05-12T21:45:03.866Z,99382.97
2023-05-12T21:47:30.423Z,99378.59
2023-05-12T21:49:57.031Z,99371.53
2023-05-12T21:52:23.743Z,99370.75
2023-05-12T21:54:50.307Z,99373.59
2023-05-12T21:57:17.655Z,99374.25
2023-05-12T21:59:44.563Z,99371.06
2023-05-12T22:02:11.370Z,99367.22
2023-05-12T22:04:37.991Z,99373.38
2023-05-12T22:07:04.762Z,99374.94
2023-05-12T22:09:31.528Z,99376.34
2023-05-12T22:11:58.084Z,99374.88
2023-05-12T22:14:24.859Z,99372.34
2023-05-12T22:16:51.480Z,99375.59
2023-05-12T22:19:18.863Z,99371.53
2023-05-12T22:21:45.736Z,99378.25
2023-05-12T22:24:12.324Z,99377.41
2023-05-12T22:26:38.902Z,99371.59
2023-05-12T22:29:05.456Z,99377.66
2023-05-12T22:31:32.106Z,99375.13
2023-05-12T22:33:58.665Z,99370.81
2023-05-12T22:36:25.365Z,99365.72
2023-05-12T22:38:51.939Z,99368.44
2023-05-12T22:41:19.553Z,99369.09
2023-05-12T22:43:46.260Z,99362.97
2023-05-12T22:46:12.829Z,99361.50
2023-05-12T22:48:39.793Z,99363.31
2023-05-12T22:51:06.691Z,99362.44
2023-05-12T22:53:35.873Z,99369.22
2023-05-12T22:56:03.360Z,99357.59
2023-05-12T22:58:30.076Z,99366.78
2023-05-12T23:00:56.750Z,99366.84
2023-05-12T23:03:23.364Z,99373.56
2023-05-12T23:05:50.270Z,99360.88
2023-05-12T23:08:16.837Z,99361.69
2023-05-12T23:10:43.349Z,99356.63
2023-05-12T23:13:09.894Z,99362.44
2023-05-12T23:15:36.484Z,99367.06
2023-05-12T23:18:03.087Z,99362.69
2023-05-12T23:20:29.693Z,99355.03
2023-05-12T23:22:56.431Z,99361.66
2023-05-12T23:25:23.337Z,99364.25
2023-05-12T23:27:49.917Z,99363.28
2023-05-12T23:30:16.700Z,99356.56
2023-05-12T23:32:43.327Z,99353.13
2023-05-12T23:35:10.089Z,99356.41
2023-05-12T23:37:36.660Z,99358.19
2023-05-12T23:40:04.088Z,99356.34
2023-05-12T23:42:30.700Z,99349.69
2023-05-12T23:44:57.278Z,99350.59
2023-05-12T23:47:23.891Z,99349.00
2023-05-12T23:49:51.671Z,99341.94
2023-05-12T23:52:18.262Z,99354.72
2023-05-12T23:54:44.797Z,99344.53
2023-05-12T23:57:11.364Z,99341.22
2023-05-12T23:59:37.890Z,99341.94
